createdAt,value
2016-10-10T00:00:28.486Z,158
2016-10-10T00:01:28.985Z,158
2016-10-10T00:02:29.629Z,158
2016-10-10T00:03:29.980Z,158
2016-10-10T00:04:30.512Z,158
2016-10-10T00:05:30.998Z,158
2016-10-10T00:06:31.500Z,158
2016-10-10T00:07:31.982Z,164
2016-10-10T00:08:32.629Z,164
2016-10-10T00:09:33.005Z,164
2016-10-10T00:10:33.633Z,164
2016-10-10T00:11:33.986Z,164
2016-10-10T00:12:34.630Z,164
2016-10-10T00:13:35.129Z,164
2016-10-10T00:14:35.485Z,164
2016-10-10T00:15:36.003Z,164
2016-10-10T00:16:36.627Z,164
2016-10-10T00:17:37.006Z,146
2016-10-10T00:18:37.483Z,146
2016-10-10T00:19:37.987Z,146
2016-10-10T00:20:38.631Z,146
2016-10-10T00:21:38.974Z,146
2016-10-10T00:22:39.521Z,146
2016-10-10T00:23:40.120Z,146
2016-10-10T00:24:40.478Z,146
2016-10-10T00:25:41.115Z,146
2016-10-10T00:26:41.463Z,146
2016-10-10T00:27:41.963Z,153
2016-10-10T00:28:42.469Z,153
2016-10-10T00:29:43.130Z,153
2016-10-10T00:30:43.480Z,153
2016-10-10T00:31:44.134Z,153
2016-10-10T00:32:44.625Z,153
2016-10-10T00:33:44.991Z,153
2016-10-10T00:34:45.641Z,153
2016-10-10T00:35:45.991Z,153
2016-10-10T00:36:46.499Z,153
2016-10-10T00:37:47.005Z,149
2016-10-10T00:38:47.496Z,149
2016-10-10T00:39:47.970Z,149
2016-10-10T00:40:48.472Z,149
2016-10-10T00:41:49.117Z,149
2016-10-10T00:42:49.490Z,149
2016-10-10T00:43:50.116Z,149
2016-10-10T00:44:50.492Z,149
2016-10-10T00:45:50.994Z,149
2016-10-10T00:46:51.469Z,149
2016-10-10T00:47:51.978Z,132
2016-10-10T00:48:52.464Z,132
2016-10-10T00:49:52.980Z,132
2016-10-10T00:50:53.613Z,132
2016-10-10T00:51:53.965Z,132
2016-10-10T00:52:54.618Z,132
2016-10-10T00:53:55.122Z,132
2016-10-10T00:54:55.483Z,132
2016-10-10T00:55:56.117Z,132
2016-10-10T00:56:56.466Z,132
2016-10-10T00:57:57.111Z,125
2016-10-10T00:58:57.608Z,125
2016-10-10T00:59:58.111Z,125
2016-10-10T01:00:58.661Z,125
2016-10-10T01:01:59.109Z,125
2016-10-10T01:02:59.458Z,125
2016-10-10T01:04:00.119Z,125
2016-10-10T01:05:00.458Z,125
2016-10-10T01:06:00.975Z,125
2016-10-10T01:07:01.487Z,125
2016-10-10T01:08:01.968Z,155
2016-10-10T01:09:02.467Z,155
2016-10-10T01:10:02.991Z,155
2016-10-10T01:11:03.622Z,155
2016-10-10T01:12:03.966Z,155
2016-10-10T01:13:04.470Z,155
2016-10-10T01:14:05.116Z,155
2016-10-10T01:15:05.471Z,155
2016-10-10T01:16:06.119Z,155
2016-10-10T01:17:06.485Z,140
2016-10-10T01:18:06.975Z,140
2016-10-10T01:19:07.485Z,140
2016-10-10T01:20:07.984Z,140
2016-10-10T01:21:08.613Z,140
2016-10-10T01:22:09.115Z,140
2016-10-10T01:23:09.611Z,140
2016-10-10T01:24:10.025Z,140
2016-10-10T01:25:10.477Z,140
2016-10-10T01:26:10.970Z,140
2016-10-10T01:27:11.483Z,165
2016-10-10T01:28:11.993Z,165
2016-10-10T01:29:12.610Z,165
2016-10-10T01:30:12.978Z,165
2016-10-10T01:31:13.613Z,165
2016-10-10T01:32:14.122Z,165
2016-10-10T01:33:14.463Z,165
2016-10-10T01:34:14.968Z,165
2016-10-10T01:35:15.482Z,165
2016-10-10T01:36:15.969Z,165
2016-10-10T01:37:16.465Z,168
2016-10-10T01:38:16.977Z,168
2016-10-10T01:39:17.482Z,168
2016-10-10T01:40:17.978Z,168
2016-10-10T01:41:18.465Z,168
2016-10-10T01:42:19.009Z,168
2016-10-10T01:43:19.607Z,168
2016-10-10T01:44:19.966Z,168
2016-10-10T01:45:20.609Z,168
2016-10-10T01:46:20.958Z,168
2016-10-10T01:47:21.462Z,165
2016-10-10T01:48:22.117Z,165
2016-10-10T01:49:22.619Z,165
2016-10-10T01:50:22.996Z,165
2016-10-10T01:51:23.507Z,165
2016-10-10T01:52:23.986Z,165
2016-10-10T01:53:24.475Z,165
2016-10-10T01:54:25.127Z,165
2016-10-10T01:55:25.480Z,165
2016-10-10T01:56:26.142Z,165
2016-10-10T01:57:26.618Z,134
2016-10-10T01:58:27.126Z,134
2016-10-10T01:59:27.497Z,134
2016-10-10T02:00:28.117Z,134
2016-10-10T02:01:28.467Z,134
2016-10-10T02:02:28.972Z,134
2016-10-10T02:03:29.471Z,134
2016-10-10T02:04:30.120Z,134
2016-10-10T02:05:30.467Z,134
2016-10-10T02:06:30.986Z,134
2016-10-10T02:07:31.481Z,144
2016-10-10T02:08:32.115Z,144
2016-10-10T02:09:32.613Z,144
2016-10-10T02:10:32.984Z,144
2016-10-10T02:11:33.470Z,144
2016-10-10T02:12:33.959Z,144
2016-10-10T02:13:34.622Z,144
2016-10-10T02:14:34.982Z,144
2016-10-10T02:15:35.607Z,144
2016-10-10T02:16:35.972Z,144
2016-10-10T02:17:36.459Z,147
2016-10-10T02:18:36.969Z,147
2016-10-10T02:19:37.488Z,147
2016-10-10T02:20:38.108Z,147
2016-10-10T02:21:38.478Z,147
2016-10-10T02:22:38.958Z,147
2016-10-10T02:23:39.477Z,147
2016-10-10T02:24:40.100Z,147
2016-10-10T02:25:40.456Z,147
2016-10-10T02:26:40.956Z,147
2016-10-10T02:27:41.474Z,149
2016-10-10T02:28:41.960Z,149
2016-10-10T02:29:42.484Z,149
2016-10-10T02:30:43.158Z,149
2016-10-10T02:31:43.628Z,149
2016-10-10T02:32:43.964Z,149
2016-10-10T02:33:44.460Z,149
2016-10-10T02:34:44.958Z,149
2016-10-10T02:35:45.480Z,149
2016-10-10T02:36:46.114Z,149
2016-10-10T02:37:46.465Z,126
2016-10-10T02:38:46.960Z,126
2016-10-10T02:39:47.605Z,126
2016-10-10T02:40:47.969Z,126
2016-10-10T02:41:48.615Z,126
2016-10-10T02:42:48.955Z,126
2016-10-10T02:43:49.602Z,126
2016-10-10T02:44:49.990Z,126
2016-10-10T02:45:50.483Z,126
2016-10-10T02:46:50.976Z,126
2016-10-10T02:47:51.600Z,137
2016-10-10T02:48:52.106Z,137
2016-10-10T02:49:52.459Z,137
2016-10-10T02:50:53.111Z,137
2016-10-10T02:51:53.481Z,137
2016-10-10T02:52:54.106Z,137
2016-10-10T02:53:54.461Z,137
2016-10-10T02:54:54.968Z,137
2016-10-10T02:55:55.603Z,137
2016-10-10T02:56:55.974Z,137
2016-10-10T02:57:56.467Z,136
2016-10-10T02:58:57.104Z,136
2016-10-10T02:59:57.608Z,136
2016-10-10T03:00:57.997Z,136
2016-10-10T03:01:58.465Z,136
2016-10-10T03:02:59.106Z,136
2016-10-10T03:03:59.477Z,136
2016-10-10T03:04:59.950Z,136
2016-10-10T03:06:00.466Z,136
2016-10-10T03:07:00.951Z,136
2016-10-10T03:08:01.506Z,125
2016-10-10T03:09:02.112Z,125
2016-10-10T03:10:02.609Z,125
2016-10-10T03:11:03.141Z,125
2016-10-10T03:12:03.605Z,125
2016-10-10T03:13:04.258Z,125
2016-10-10T03:14:04.469Z,125
2016-10-10T03:15:05.001Z,125
2016-10-10T03:16:05.459Z,125
2016-10-10T03:17:05.968Z,124
2016-10-10T03:18:06.616Z,124
2016-10-10T03:19:07.106Z,124
2016-10-10T03:20:07.449Z,124
2016-10-10T03:21:07.965Z,124
2016-10-10T03:22:08.480Z,124
2016-10-10T03:23:08.976Z,124
2016-10-10T03:24:09.456Z,124
2016-10-10T03:25:10.100Z,124
2016-10-10T03:26:10.597Z,124
2016-10-10T03:27:11.097Z,132
2016-10-10T03:28:11.451Z,132
2016-10-10T03:29:11.968Z,132
2016-10-10T03:30:12.474Z,132
2016-10-10T03:31:12.948Z,132
2016-10-10T03:32:13.453Z,132
2016-10-10T03:33:14.092Z,132
2016-10-10T03:34:14.477Z,132
2016-10-10T03:35:14.954Z,132
2016-10-10T03:36:15.495Z,132
2016-10-10T03:37:16.091Z,129
2016-10-10T03:38:16.612Z,129
2016-10-10T03:39:17.092Z,129
2016-10-10T03:40:17.451Z,129
2016-10-10T03:41:17.941Z,129
2016-10-10T03:42:18.460Z,129
2016-10-10T03:43:19.087Z,129
2016-10-10T03:44:19.590Z,129
2016-10-10T03:45:19.966Z,129
2016-10-10T03:46:20.470Z,129
2016-10-10T03:47:20.974Z,146
2016-10-10T03:48:21.454Z,146
2016-10-10T03:49:22.010Z,146
2016-10-10T03:50:22.600Z,146
2016-10-10T03:51:23.116Z,146
2016-10-10T03:52:23.603Z,146
2016-10-10T03:53:23.974Z,146
2016-10-10T03:54:24.486Z,146
2016-10-10T03:55:24.989Z,146
2016-10-10T03:56:25.617Z,146
2016-10-10T03:57:25.969Z,167
2016-10-10T03:58:26.474Z,167
2016-10-10T03:59:26.947Z,167
2016-10-10T04:00:27.447Z,167
2016-10-10T04:01:27.966Z,167
2016-10-10T04:02:28.454Z,167
2016-10-10T04:03:28.943Z,167
2016-10-10T04:04:29.490Z,167
2016-10-10T04:05:29.967Z,167
2016-10-10T04:06:30.456Z,167
2016-10-10T04:07:30.946Z,140
2016-10-10T04:08:31.602Z,140
2016-10-10T04:09:31.945Z,140
2016-10-10T04:10:32.487Z,140
2016-10-10T04:11:32.948Z,140
2016-10-10T04:12:33.605Z,140
2016-10-10T04:13:33.950Z,140
2016-10-10T04:14:34.460Z,140
2016-10-10T04:15:34.949Z,140
2016-10-10T04:16:35.444Z,140
2016-10-10T04:17:36.091Z,158
2016-10-10T04:18:36.607Z,158
2016-10-10T04:19:37.088Z,158
2016-10-10T04:20:37.452Z,158
2016-10-10T04:21:38.086Z,158
2016-10-10T04:22:38.447Z,158
2016-10-10T04:23:39.084Z,158
2016-10-10T04:24:39.440Z,158
2016-10-10T04:25:39.988Z,158
2016-10-10T04:26:40.456Z,158
2016-10-10T04:27:40.956Z,146
2016-10-10T04:28:41.478Z,146
2016-10-10T04:29:41.966Z,146
2016-10-10T04:30:42.597Z,146
2016-10-10T04:31:43.118Z,146
2016-10-10T04:32:43.626Z,146
2016-10-10T04:33:44.122Z,146
2016-10-10T04:34:44.465Z,146
2016-10-10T04:35:44.956Z,146
2016-10-10T04:36:45.459Z,146
2016-10-10T04:37:46.109Z,148
2016-10-10T04:38:46.472Z,148
2016-10-10T04:39:46.955Z,148
2016-10-10T04:40:47.471Z,148
2016-10-10T04:41:47.990Z,148
2016-10-10T04:42:48.611Z,148
2016-10-10T04:43:49.104Z,148
2016-10-10T04:44:49.616Z,148
2016-10-10T04:45:49.981Z,148
2016-10-10T04:46:50.618Z,148
2016-10-10T04:47:51.115Z,176
2016-10-10T04:48:51.449Z,176
2016-10-10T04:49:51.967Z,176
2016-10-10T04:50:52.503Z,176
2016-10-10T04:51:53.107Z,176
2016-10-10T04:52:53.454Z,176
2016-10-10T04:53:53.960Z,176
2016-10-10T04:54:54.463Z,176
2016-10-10T04:55:54.963Z,176
2016-10-10T04:56:55.598Z,176
2016-10-10T04:57:55.975Z,161
2016-10-10T04:58:56.461Z,161
2016-10-10T04:59:57.100Z,161
2016-10-10T05:00:57.468Z,161
2016-10-10T05:01:57.951Z,161
2016-10-10T05:02:58.458Z,161
2016-10-10T05:03:58.997Z,161
2016-10-10T05:04:59.484Z,161
2016-10-10T05:05:59.991Z,161
2016-10-10T05:07:00.494Z,161
2016-10-10T05:08:00.953Z,127
2016-10-10T05:09:01.497Z,127
2016-10-10T05:10:02.106Z,127
2016-10-10T05:11:02.504Z,127
2016-10-10T05:12:02.966Z,127
2016-10-10T05:13:03.458Z,127
2016-10-10T05:14:03.970Z,127
2016-10-10T05:15:04.608Z,127
2016-10-10T05:16:05.104Z,127
2016-10-10T05:17:05.616Z,140
2016-10-10T05:18:05.969Z,140
2016-10-10T05:19:06.615Z,140
2016-10-10T05:20:07.169Z,140
2016-10-10T05:21:07.474Z,140
2016-10-10T05:22:07.949Z,140
2016-10-10T05:23:08.448Z,140
2016-10-10T05:24:09.106Z,140
2016-10-10T05:25:09.469Z,140
2016-10-10T05:26:09.964Z,140
2016-10-10T05:27:10.612Z,162
2016-10-10T05:28:11.103Z,162
2016-10-10T05:29:11.599Z,162
2016-10-10T05:30:11.971Z,162
2016-10-10T05:31:12.455Z,162
2016-10-10T05:32:13.095Z,162
2016-10-10T05:33:13.466Z,162
2016-10-10T05:34:13.967Z,162
2016-10-10T05:35:14.596Z,162
2016-10-10T05:36:14.944Z,162
2016-10-10T05:37:15.464Z,141
2016-10-10T05:38:15.979Z,141
2016-10-10T05:39:16.601Z,141
2016-10-10T05:40:16.993Z,141
2016-10-10T05:41:17.516Z,141
2016-10-10T05:42:18.119Z,141
2016-10-10T05:43:18.487Z,141
2016-10-10T05:44:18.992Z,141
2016-10-10T05:45:19.511Z,141
2016-10-10T05:46:20.136Z,141
2016-10-10T05:47:20.666Z,137
2016-10-10T05:48:21.150Z,137
2016-10-10T05:49:21.520Z,137
2016-10-10T05:50:22.009Z,137
2016-10-10T05:51:22.661Z,137
2016-10-10T05:52:23.172Z,137
2016-10-10T05:53:23.539Z,137
2016-10-10T05:54:24.167Z,137
2016-10-10T05:55:24.665Z,137
2016-10-10T05:56:25.044Z,137
2016-10-10T05:57:25.663Z,143
2016-10-10T05:58:26.161Z,143
2016-10-10T05:59:26.527Z,143
2016-10-10T06:00:27.015Z,143
2016-10-10T06:01:27.513Z,143
2016-10-10T06:02:28.034Z,143
2016-10-10T06:03:28.534Z,143
2016-10-10T06:04:29.030Z,143
2016-10-10T06:05:29.652Z,143
2016-10-10T06:06:30.170Z,143
2016-10-10T06:07:30.517Z,149
2016-10-10T06:08:31.033Z,149
2016-10-10T06:09:31.532Z,149
2016-10-10T06:10:32.005Z,149
2016-10-10T06:11:32.655Z,149
2016-10-10T06:12:33.023Z,149
2016-10-10T06:13:33.650Z,149
2016-10-10T06:14:34.157Z,149
2016-10-10T06:15:34.526Z,149
2016-10-10T06:16:35.004Z,149
2016-10-10T06:17:35.519Z,137
2016-10-10T06:18:36.151Z,137
2016-10-10T06:19:36.516Z,137
2016-10-10T06:20:37.151Z,137
2016-10-10T06:21:37.514Z,137
2016-10-10T06:22:38.015Z,137
2016-10-10T06:23:38.496Z,137
2016-10-10T06:24:39.141Z,137
2016-10-10T06:25:39.507Z,137
2016-10-10T06:26:39.996Z,137
2016-10-10T06:27:40.651Z,134
2016-10-10T06:28:41.160Z,134
2016-10-10T06:29:41.509Z,134
2016-10-10T06:30:42.059Z,134
2016-10-10T06:31:42.659Z,134
2016-10-10T06:32:43.006Z,134
2016-10-10T06:33:43.659Z,134
2016-10-10T06:34:44.006Z,134
2016-10-10T06:35:44.654Z,134
2016-10-10T06:36:45.174Z,134
2016-10-10T06:37:45.671Z,120
2016-10-10T06:38:46.039Z,120
2016-10-10T06:39:46.653Z,120
2016-10-10T06:40:47.032Z,120
2016-10-10T06:41:47.509Z,120
2016-10-10T06:42:48.151Z,120
2016-10-10T06:43:48.530Z,120
2016-10-10T06:44:49.158Z,120
2016-10-10T06:45:49.650Z,120
2016-10-10T06:46:50.024Z,120
2016-10-10T06:47:50.511Z,122
2016-10-10T06:48:51.033Z,122
2016-10-10T06:49:51.668Z,122
2016-10-10T06:50:52.157Z,122
2016-10-10T06:51:52.652Z,122
2016-10-10T06:52:53.005Z,122
2016-10-10T06:53:53.503Z,122
2016-10-10T06:54:54.046Z,122
2016-10-10T06:55:54.664Z,122
2016-10-10T06:56:55.026Z,122
2016-10-10T06:57:55.660Z,140
2016-10-10T06:58:56.154Z,140
2016-10-10T06:59:56.500Z,140
2016-10-10T07:00:57.003Z,140
2016-10-10T07:01:57.645Z,140
2016-10-10T07:02:58.013Z,140
2016-10-10T07:03:58.514Z,140
2016-10-10T07:04:59.002Z,140
2016-10-10T07:05:59.508Z,140
2016-10-10T07:07:00.000Z,140
2016-10-10T07:08:00.514Z,127
2016-10-10T07:09:01.154Z,127
2016-10-10T07:10:01.507Z,127
2016-10-10T07:11:02.161Z,127
2016-10-10T07:12:02.514Z,127
2016-10-10T07:13:03.024Z,127
2016-10-10T07:14:03.527Z,127
2016-10-10T07:15:04.154Z,127
2016-10-10T07:16:04.660Z,127
2016-10-10T07:17:05.148Z,127
2016-10-10T07:18:05.651Z,138
2016-10-10T07:19:06.008Z,138
2016-10-10T07:20:06.502Z,138
2016-10-10T07:21:07.026Z,138
2016-10-10T07:22:07.527Z,138
2016-10-10T07:23:08.149Z,138
2016-10-10T07:24:08.521Z,138
2016-10-10T07:25:09.024Z,138
2016-10-10T07:26:09.647Z,138
2016-10-10T07:27:09.997Z,133
2016-10-10T07:28:10.675Z,133
2016-10-10T07:29:11.156Z,133
2016-10-10T07:30:11.645Z,133
2016-10-10T07:31:12.008Z,133
2016-10-10T07:32:12.651Z,133
2016-10-10T07:33:13.018Z,133
2016-10-10T07:34:13.537Z,133
2016-10-10T07:35:14.151Z,133
2016-10-10T07:36:14.494Z,133
2016-10-10T07:37:15.020Z,140
2016-10-10T07:38:15.552Z,140
2016-10-10T07:39:16.147Z,140
2016-10-10T07:41:17.149Z,140
2016-10-10T07:42:17.640Z,140
2016-10-10T07:43:18.144Z,140
2016-10-10T07:44:18.494Z,140
2016-10-10T07:45:19.013Z,140
2016-10-10T07:46:19.645Z,140
2016-10-10T07:47:20.025Z,116
2016-10-10T07:48:20.510Z,116
2016-10-10T07:49:21.018Z,116
2016-10-10T07:50:21.659Z,116
2016-10-10T07:51:22.018Z,116
2016-10-10T07:52:22.663Z,116
2016-10-10T07:53:23.049Z,116
2016-10-10T07:54:23.661Z,116
2016-10-10T07:55:24.023Z,116
2016-10-10T07:56:24.520Z,116
2016-10-10T07:57:25.039Z,127
2016-10-10T07:58:25.668Z,127
2016-10-10T07:59:26.020Z,127
2016-10-10T08:00:26.661Z,127
2016-10-10T08:01:27.017Z,127
2016-10-10T08:02:27.519Z,127
2016-10-10T08:03:28.021Z,127
2016-10-10T08:04:28.508Z,127
2016-10-10T08:05:29.158Z,127
2016-10-10T08:06:29.652Z,127
2016-10-10T08:07:30.158Z,113
2016-10-10T08:08:30.505Z,113
2016-10-10T08:09:31.155Z,113
2016-10-10T08:10:31.502Z,113
2016-10-10T08:11:32.156Z,113
2016-10-10T08:12:32.513Z,113
2016-10-10T08:13:33.169Z,113
2016-10-10T08:14:33.653Z,113
2016-10-10T08:15:34.011Z,113
2016-10-10T08:16:34.655Z,113
2016-10-10T08:17:34.999Z,110
2016-10-10T08:18:35.517Z,110
2016-10-10T08:19:36.104Z,110
2016-10-10T08:20:36.508Z,110
2016-10-10T08:21:37.150Z,110
2016-10-10T08:22:37.502Z,110
2016-10-10T08:23:38.001Z,110
2016-10-10T08:24:38.504Z,110
2016-10-10T08:25:39.169Z,110
2016-10-10T08:26:39.651Z,110
2016-10-10T08:27:40.156Z,129
2016-10-10T08:28:40.660Z,129
2016-10-10T08:29:41.021Z,129
2016-10-10T08:30:41.679Z,129
2016-10-10T08:31:42.168Z,129
2016-10-10T08:32:42.661Z,129
2016-10-10T08:33:43.081Z,129
2016-10-10T08:34:43.515Z,129
2016-10-10T08:35:44.014Z,129
2016-10-10T08:36:44.526Z,129
2016-10-10T08:37:45.060Z,137
2016-10-10T08:38:45.535Z,137
2016-10-10T08:39:46.053Z,137
2016-10-10T08:40:46.539Z,137
2016-10-10T08:41:47.031Z,137
2016-10-10T08:42:47.519Z,137
2016-10-10T08:43:48.014Z,137
2016-10-10T08:44:48.529Z,137
2016-10-10T08:45:49.018Z,137
2016-10-10T08:46:49.538Z,137
2016-10-10T08:47:50.027Z,154
2016-10-10T08:48:50.668Z,154
2016-10-10T08:49:51.065Z,154
2016-10-10T08:50:51.557Z,154
2016-10-10T08:51:52.031Z,154
2016-10-10T08:52:52.559Z,154
2016-10-10T08:53:53.033Z,154
2016-10-10T08:54:53.542Z,154
2016-10-10T08:55:54.064Z,154
2016-10-10T08:56:54.675Z,154
2016-10-10T08:57:55.180Z,126
2016-10-10T08:58:55.525Z,126
2016-10-10T08:59:56.174Z,126
2016-10-10T09:00:56.673Z,126
2016-10-10T09:01:57.173Z,126
2016-10-10T09:02:57.677Z,126
2016-10-10T09:03:58.068Z,126
2016-10-10T09:04:58.540Z,126
2016-10-10T09:05:59.179Z,126
2016-10-10T09:06:59.679Z,126
2016-10-10T09:08:00.038Z,122
2016-10-10T09:09:00.539Z,122
2016-10-10T09:10:01.192Z,122
2016-10-10T09:11:01.564Z,122
2016-10-10T09:12:02.040Z,122
2016-10-10T09:13:02.542Z,122
2016-10-10T09:14:03.058Z,122
2016-10-10T09:15:03.564Z,122
2016-10-10T09:16:04.187Z,122
2016-10-10T09:17:04.541Z,122
2016-10-10T09:18:05.057Z,131
2016-10-10T09:19:05.593Z,131
2016-10-10T09:20:06.057Z,131
2016-10-10T09:21:06.588Z,131
2016-10-10T09:22:07.052Z,131
2016-10-10T09:23:07.548Z,131
2016-10-10T09:24:08.055Z,131
2016-10-10T09:25:08.543Z,131
2016-10-10T09:26:09.051Z,131
2016-10-10T09:27:09.688Z,140
2016-10-10T09:28:10.040Z,140
2016-10-10T09:29:10.548Z,140
2016-10-10T09:30:11.043Z,140
2016-10-10T09:31:11.547Z,140
2016-10-10T09:32:12.188Z,140
2016-10-10T09:33:12.538Z,140
2016-10-10T09:34:13.189Z,140
2016-10-10T09:35:13.538Z,140
2016-10-10T09:36:14.063Z,140
2016-10-10T09:37:14.684Z,163
2016-10-10T09:38:15.200Z,163
2016-10-10T09:39:15.545Z,163
2016-10-10T09:40:16.060Z,163
2016-10-10T09:41:16.682Z,163
2016-10-10T09:42:17.049Z,163
2016-10-10T09:43:17.561Z,163
2016-10-10T09:44:18.041Z,163
2016-10-10T09:45:18.684Z,163
2016-10-10T09:46:19.201Z,163
2016-10-10T09:47:19.585Z,144
2016-10-10T09:48:20.201Z,144
2016-10-10T09:49:20.572Z,144
2016-10-10T09:50:21.053Z,144
2016-10-10T09:51:21.609Z,144
2016-10-10T09:52:22.064Z,144
2016-10-10T09:53:22.703Z,144
2016-10-10T09:54:23.052Z,144
2016-10-10T09:55:23.703Z,144
2016-10-10T09:56:24.061Z,144
2016-10-10T09:57:24.572Z,129
2016-10-10T09:58:25.049Z,129
2016-10-10T09:59:25.695Z,129
2016-10-10T10:00:26.193Z,129
2016-10-10T10:01:26.564Z,129
2016-10-10T10:02:27.091Z,129
2016-10-10T10:03:27.563Z,129
2016-10-10T10:04:28.056Z,129
2016-10-10T10:05:28.565Z,129
2016-10-10T10:06:29.050Z,129
2016-10-10T10:07:29.545Z,123
2016-10-10T10:08:30.190Z,123
2016-10-10T10:09:30.540Z,123
2016-10-10T10:10:31.041Z,123
2016-10-10T10:11:31.541Z,123
2016-10-10T10:12:32.206Z,123
2016-10-10T10:13:32.553Z,123
2016-10-10T10:14:33.186Z,123
2016-10-10T10:15:33.540Z,123
2016-10-10T10:16:34.190Z,123
2016-10-10T10:17:34.544Z,154
2016-10-10T10:18:35.192Z,154
2016-10-10T10:19:35.682Z,154
2016-10-10T10:20:36.187Z,154
2016-10-10T10:21:36.569Z,154
2016-10-10T10:22:37.187Z,154
2016-10-10T10:23:37.561Z,154
2016-10-10T10:24:38.048Z,154
2016-10-10T10:25:38.678Z,154
2016-10-10T10:26:39.183Z,154
2016-10-10T10:27:39.704Z,178
2016-10-10T10:28:40.047Z,178
2016-10-10T10:29:40.562Z,178
2016-10-10T10:30:41.192Z,178
2016-10-10T10:31:41.687Z,178
2016-10-10T10:32:42.038Z,178
2016-10-10T10:33:42.558Z,178
2016-10-10T10:34:43.038Z,178
2016-10-10T10:35:43.689Z,178
2016-10-10T10:36:44.193Z,178
2016-10-10T10:37:44.688Z,134
2016-10-10T10:38:45.190Z,134
2016-10-10T10:39:45.555Z,134
2016-10-10T10:40:46.194Z,134
2016-10-10T10:41:46.542Z,134
2016-10-10T10:42:47.065Z,134
2016-10-10T10:43:47.709Z,134
2016-10-10T10:44:48.045Z,134
2016-10-10T10:45:48.562Z,134
2016-10-10T10:46:49.040Z,134
2016-10-10T10:47:49.685Z,133
2016-10-10T10:48:50.058Z,133
2016-10-10T10:49:50.561Z,133
2016-10-10T10:50:51.048Z,133
2016-10-10T10:51:51.541Z,133
2016-10-10T10:52:52.188Z,133
2016-10-10T10:53:52.545Z,133
2016-10-10T10:54:53.182Z,133
2016-10-10T10:55:53.558Z,133
2016-10-10T10:56:54.047Z,133
2016-10-10T10:57:54.535Z,166
2016-10-10T10:58:55.182Z,166
2016-10-10T10:59:55.533Z,166
2016-10-10T11:00:56.184Z,166
2016-10-10T11:01:56.538Z,166
2016-10-10T11:02:57.044Z,166
2016-10-10T11:03:57.552Z,166
2016-10-10T11:04:58.188Z,166
2016-10-10T11:05:58.543Z,166
2016-10-10T11:06:59.092Z,166
2016-10-10T11:07:59.594Z,133
2016-10-10T11:09:00.200Z,133
2016-10-10T11:10:00.538Z,133
2016-10-10T11:11:01.187Z,133
2016-10-10T11:12:01.570Z,133
2016-10-10T11:13:02.046Z,133
2016-10-10T11:14:02.565Z,133
2016-10-10T11:15:03.040Z,133
2016-10-10T11:16:03.683Z,133
2016-10-10T11:17:04.045Z,133
2016-10-10T11:18:04.562Z,220
2016-10-10T11:19:05.041Z,220
2016-10-10T11:20:05.685Z,220
2016-10-10T11:21:06.053Z,220
2016-10-10T11:22:06.545Z,220
2016-10-10T11:23:07.049Z,220
2016-10-10T11:24:07.681Z,220
2016-10-10T11:25:08.187Z,220
2016-10-10T11:26:08.557Z,220
2016-10-10T11:27:09.052Z,170
2016-10-10T11:28:09.539Z,170
2016-10-10T11:29:10.041Z,170
2016-10-10T11:30:10.551Z,170
2016-10-10T11:31:11.050Z,170
2016-10-10T11:32:11.549Z,170
2016-10-10T11:33:12.030Z,170
2016-10-10T11:34:12.531Z,170
2016-10-10T11:35:13.077Z,170
2016-10-10T11:36:13.539Z,170
2016-10-10T11:37:14.177Z,148
2016-10-10T11:38:14.543Z,148
2016-10-10T11:39:15.022Z,148
2016-10-10T11:40:15.528Z,148
2016-10-10T11:41:16.178Z,148
2016-10-10T11:42:16.547Z,148
2016-10-10T11:43:17.035Z,148
2016-10-10T11:44:17.574Z,148
2016-10-10T11:45:18.023Z,148
2016-10-10T11:46:18.668Z,148
2016-10-10T11:47:19.044Z,146
2016-10-10T11:48:19.677Z,146
2016-10-10T11:49:20.048Z,146
2016-10-10T11:50:20.556Z,146
2016-10-10T11:51:21.037Z,146
2016-10-10T11:52:21.670Z,146
2016-10-10T11:53:22.174Z,146
2016-10-10T11:54:22.533Z,146
2016-10-10T11:55:23.032Z,146
2016-10-10T11:56:23.684Z,146
2016-10-10T11:57:24.041Z,210
2016-10-10T11:58:24.679Z,210
2016-10-10T11:59:25.080Z,210
2016-10-10T12:00:25.671Z,210
2016-10-10T12:01:26.057Z,210
2016-10-10T12:02:26.554Z,210
2016-10-10T12:03:27.034Z,210
2016-10-10T12:04:27.554Z,210
2016-10-10T12:05:28.050Z,210
2016-10-10T12:06:28.573Z,210
2016-10-10T12:07:29.036Z,146
2016-10-10T12:08:29.670Z,146
2016-10-10T12:09:30.213Z,146
2016-10-10T12:10:30.541Z,146
2016-10-10T12:11:31.044Z,146
2016-10-10T12:12:31.556Z,146
2016-10-10T12:13:32.059Z,146
2016-10-10T12:14:32.521Z,146
2016-10-10T12:15:33.188Z,146
2016-10-10T12:16:33.698Z,146
2016-10-10T12:17:34.173Z,166
2016-10-10T12:18:34.670Z,166
2016-10-10T12:19:35.170Z,166
2016-10-10T12:20:35.517Z,166
2016-10-10T12:21:36.061Z,166
2016-10-10T12:22:36.519Z,166
2016-10-10T12:23:37.025Z,166
2016-10-10T12:24:37.667Z,166
2016-10-10T12:25:38.027Z,166
2016-10-10T12:26:38.518Z,166
2016-10-10T12:27:39.035Z,171
2016-10-10T12:28:39.550Z,171
2016-10-10T12:29:40.037Z,171
2016-10-10T12:30:40.676Z,171
2016-10-10T12:31:41.038Z,171
2016-10-10T12:32:41.677Z,171
2016-10-10T12:33:42.025Z,171
2016-10-10T12:34:42.691Z,171
2016-10-10T12:35:43.046Z,171
2016-10-10T12:36:43.668Z,171
2016-10-10T12:37:44.025Z,205
2016-10-10T12:38:44.686Z,205
2016-10-10T12:39:45.180Z,205
2016-10-10T12:40:45.670Z,205
2016-10-10T12:41:46.177Z,205
2016-10-10T12:42:46.525Z,205
2016-10-10T12:43:47.021Z,205
2016-10-10T12:44:47.694Z,205
2016-10-10T12:45:48.174Z,205
2016-10-10T12:46:48.533Z,205
2016-10-10T12:47:49.019Z,232
2016-10-10T12:48:49.669Z,232
2016-10-10T12:49:50.188Z,232
2016-10-10T12:50:50.522Z,232
2016-10-10T12:51:51.169Z,232
2016-10-10T12:52:51.534Z,232
2016-10-10T12:53:52.026Z,232
2016-10-10T12:54:52.519Z,232
2016-10-10T12:55:53.023Z,232
2016-10-10T12:56:53.666Z,232
2016-10-10T12:57:54.035Z,195
2016-10-10T12:58:54.663Z,195
2016-10-10T12:59:55.015Z,195
2016-10-10T13:00:55.662Z,195
2016-10-10T13:01:56.020Z,195
2016-10-10T13:02:56.513Z,195
2016-10-10T13:03:57.029Z,195
2016-10-10T13:04:57.661Z,195
2016-10-10T13:05:58.017Z,195
2016-10-10T13:06:58.521Z,195
2016-10-10T13:07:59.042Z,162
2016-10-10T13:08:59.554Z,162
2016-10-10T13:10:00.034Z,162
2016-10-10T13:11:00.544Z,162
2016-10-10T13:12:01.042Z,162
2016-10-10T13:13:01.674Z,162
2016-10-10T13:14:02.177Z,162
2016-10-10T13:15:02.543Z,162
2016-10-10T13:16:03.194Z,162
2016-10-10T13:17:03.585Z,162
2016-10-10T13:18:04.170Z,155
2016-10-10T13:19:04.685Z,155
2016-10-10T13:20:05.194Z,155
2016-10-10T13:21:05.668Z,155
2016-10-10T13:22:06.024Z,155
2016-10-10T13:23:06.520Z,155
2016-10-10T13:24:07.023Z,155
2016-10-10T13:25:07.520Z,155
2016-10-10T13:26:08.169Z,155
2016-10-10T13:27:08.672Z,225
2016-10-10T13:28:09.168Z,225
2016-10-10T13:29:09.533Z,225
2016-10-10T13:30:10.012Z,225
2016-10-10T13:31:10.537Z,225
2016-10-10T13:32:11.034Z,225
2016-10-10T13:33:11.529Z,225
2016-10-10T13:34:12.167Z,225
2016-10-10T13:35:12.515Z,225
2016-10-10T13:36:13.163Z,225
2016-10-10T13:37:13.660Z,168
2016-10-10T13:38:14.023Z,168
2016-10-10T13:39:14.565Z,168
2016-10-10T13:40:15.158Z,168
2016-10-10T13:41:15.525Z,168
2016-10-10T13:42:16.014Z,168
2016-10-10T13:43:16.518Z,168
2016-10-10T13:44:17.155Z,168
2016-10-10T13:45:17.508Z,168
2016-10-10T13:46:18.037Z,168
2016-10-10T13:47:18.503Z,166
2016-10-10T13:48:19.152Z,166
2016-10-10T13:49:19.530Z,166
2016-10-10T13:50:20.043Z,166
2016-10-10T13:51:20.657Z,166
2016-10-10T13:52:21.011Z,166
2016-10-10T13:53:21.528Z,166
2016-10-10T13:54:22.034Z,166